Погода Аль-Хамрана неделю

Сухар, Оман

23 - 29 февраля
  • 23февраля
    Сегодня
    +18°
    +30°
    Ясно и безоблачно
    ВремяПогодаТемператураВлажностьДавлениеВетер, м/сВероятность осадков
    01:00Ясно и безоблачно+20°C54 %711 мм4.1 м/с2 %
    04:00Ясно и безоблачно+17°C67 %710 мм2.2 м/с2 %
    07:00Ясно и безоблачно+16°C59 %711 мм1.7 м/с2 %
    10:00Ясно и безоблачно+23°C48 %713 мм0.8 м/с2 %
    13:00Ясно и безоблачно+28°C23 %711 мм2.6 м/с2 %
    16:00Ясно и безоблачно+30°C18 %710 мм4.4 м/с2 %
    19:00Ясно и безоблачно+28°C19 %710 мм4.4 м/с2 %
    22:00Ясно и безоблачно+25°C25 %711 мм3.0 м/с2 %
  • 24февраля
    Суббота
    +18°
    +31°
    Ясно и безоблачно
    ВремяПогодаТемператураВлажностьДавлениеВетер, м/сВероятность осадков
    01:00Ясно и безоблачно+22°C36 %710 мм3.7 м/с2 %
    04:00Ясно и безоблачно+21°C64 %710 мм2.1 м/с2 %
    07:00Ясно и безоблачно+19°C63 %711 мм1.3 м/с2 %
    10:00Ясно и безоблачно+24°C52 %712 мм1.1 м/с2 %
    13:00Ясно и безоблачно+29°C24 %710 мм2.4 м/с2 %
    16:00Ясно и безоблачно+31°C18 %709 мм3.1 м/с2 %
    19:00Ясно и безоблачно+29°C21 %709 мм3.6 м/с2 %
    22:00Ясно и безоблачно+26°C29 %710 мм3.2 м/с2 %
  • 25февраля
    Воскресенье
    +19°
    +30°
    Облачно с прояснениями
    ВремяПогодаТемператураВлажностьДавлениеВетер, м/сВероятность осадков
    01:00Ясно и безоблачно+22°C67 %710 мм4.3 м/с2 %
    04:00Практически безоблачно+21°C73 %708 мм2.7 м/с2 %
    07:00Практически безоблачно+19°C76 %708 мм1.6 м/с2 %
    10:00Небольшая облачность+24°C54 %709 мм1.6 м/с2 %
    13:00Облачно с прояснениями+28°C35 %708 мм2.5 м/с2 %
    16:00Ясно и безоблачно+30°C30 %706 мм3.7 м/с2 %
    19:00Ясно и безоблачно+29°C30 %707 мм3.7 м/с2 %
    22:00Ясно и безоблачно+27°C36 %707 мм4.5 м/с2 %
  • 26февраля
    Понедельник
    +17°
    +30°
    Ясно и безоблачно
    ВремяПогодаТемператураВлажностьДавлениеВетер, м/сВероятность осадков
    01:00Ясно и безоблачно+22°C61 %707 мм4.7 м/с2 %
    04:00Ясно и безоблачно+21°C73 %706 мм3.0 м/с2 %
    07:00Ясно и безоблачно+19°C79 %707 мм2.0 м/с2 %
    10:00Ясно и безоблачно+24°C48 %708 мм2.0 м/с2 %
    13:00Ясно и безоблачно+28°C35 %707 мм3.1 м/с2 %
    16:00Ясно и безоблачно+29°C29 %706 мм4.6 м/с3 %
    19:00Ясно и безоблачно+28°C29 %707 мм4.7 м/с2 %
    22:00Ясно и безоблачно+26°C32 %708 мм3.7 м/с2 %
  • 27февраля
    Вторник
    +17°
    +31°
    Ясно и безоблачно
    ВремяПогодаТемператураВлажностьДавлениеВетер, м/сВероятность осадков
    01:00Ясно и безоблачно+22°C41 %707 мм2.9 м/с2 %
    04:00Ясно и безоблачно+21°C43 %707 мм1.8 м/с2 %
    07:00Ясно и безоблачно+18°C44 %708 мм1.3 м/с2 %
    10:00Ясно и безоблачно+23°C32 %710 мм2.0 м/с2 %
    13:00Ясно и безоблачно+28°C19 %708 мм2.2 м/с2 %
    16:00Ясно и безоблачно+30°C8 %708 мм3.6 м/с2 %
    19:00Ясно и безоблачно+28°C8 %709 мм3.9 м/с2 %
    22:00Ясно и безоблачно+25°C19 %709 мм3.9 м/с2 %
Мы используем cookies
Соглашаюсь